Date,TemperatureHighF,TemperatureAvgF,TemperatureLowF,DewpointHighF,DewpointAvgF,DewpointLowF,HumidityHigh,HumidityAvg,HumidityLow,PressureMaxIn,PressureMinIn,WindSpeedMaxMPH,WindSpeedAvgMPH,GustSpeedMaxMPH,PrecipitationSumIn
2013-4-1,85.6,65.1,43.5,57.5,40.0,20.8,100,53,10,29.87,29.74,6,0,11,0.00
2013-4-2,60.6,54.8,43.0,49.4,41.0,30.6,92,61,35,29.91,29.79,14,2,24,0.46
2013-4-3,53.8,47.3,43.2,41.9,30.6,19.8,92,55,29,29.94,29.83,13,2,22,0.01
2013-4-4,55.2,45.1,40.3,42.0,38.5,28.1,93,78,49,29.94,29.85,6,0,9,0.50
2013-4-5,78.1,56.8,36.0,49.5,31.3,11.9,100,52,10,29.99,29.82,6,0,9,0.01
2013-4-6,81.1,64.9,46.6,48.5,37.9,22.9,81,43,12,29.83,29.61,11,2,19,0.00
2013-4-7,76.3,65.8,57.4,55.7,52.5,46.3,76,63,44,29.74,29.57,10,1,17,0.00
2013-4-8,80.4,71.4,62.2,60.6,55.0,52.2,86,58,38,29.61,29.49,11,2,15,0.00
2013-4-9,88.7,76.6,68.2,63.3,56.4,46.1,75,52,24,29.57,29.46,14,5,22,0.01
2013-4-10,76.8,75.4,74.3,64.0,63.0,61.5,67,65,63,29.55,29.49,11,6,18,0.00
2013-4-11,64.9,49.3,36.9,35.9,26.3,10.6,78,48,12,29.70,29.53,11,4,15,0.01
2013-4-12,80.4,56.9,36.3,42.3,30.3,15.2,87,47,10,29.76,29.62,7,1,10,0.00
2013-4-13,81.9,64.7,47.1,43.0,31.6,18.1,72,37,10,29.83,29.58,6,1,9,0.00
2013-4-14,84.2,69.7,51.6,51.9,48.1,37.6,81,48,20,29.59,29.34,8,1,14,0.00
2013-4-15,91.2,75.6,62.8,62.8,57.7,51.0,85,57,26,29.57,29.44,9,1,14,0.00
2013-4-16,92.7,78.6,66.4,67.0,61.4,54.1,83,59,28,29.72,29.55,10,1,16,0.00
2013-4-17,89.8,80.2,74.1,70.6,63.6,54.9,88,60,32,29.71,29.46,13,4,22,0.02
2013-4-18,78.3,59.7,45.3,65.1,46.8,23.6,92,64,36,29.85,29.34,17,6,25,1.00
2013-4-19,66.0,49.2,37.6,31.6,17.9,-0.6,69,36,10,29.98,29.85,14,4,20,0.00
2013-4-20,76.8,56.5,34.3,39.0,25.1,9.9,86,42,10,30.01,29.84,10,1,16,0.00
2013-4-21,77.5,59.8,42.4,46.7,30.7,13.2,81,42,10,30.03,29.87,12,1,21,0.00
2013-4-22,82.4,64.1,43.7,47.2,34.6,18.4,82,42,10,29.95,29.67,10,1,19,0.00
2013-4-23,79.7,61.9,46.2,56.4,46.8,34.5,73,59,41,29.85,29.65,17,3,21,0.00
2013-4-24,46.2,43.6,41.2,36.2,34.4,33.0,81,70,62,29.91,29.85,9,3,16,0.11
2013-4-25,77.4,57.4,35.6,40.8,26.0,12.4,84,41,10,30.14,29.98,5,1,8,0.00
2013-4-26,72.7,59.7,54.5,53.6,44.9,34.1,79,59,39,30.01,29.83,9,1,16,0.06
2013-4-27,79.7,64.6,54.9,66.7,55.4,48.1,100,73,54,29.84,29.75,17,2,22,0.01
2013-4-28,90.9,68.3,48.7,53.3,46.4,24.1,95,55,10,29.81,29.64,6,0,10,0.00
2013-4-29,92.7,72.8,53.2,60.3,49.6,32.0,97,53,12,29.71,29.57,8,1,14,0.00
2013-4-30,90.0,73.1,52.9,61.6,51.2,39.5,94,53,18,29.64,29.54,8,1,14,0.00